Time;durP1;ratioP1;P1;durP2;ratioP2;P2;SDS_P1;SDS_P2;PMS_P1;PMS_P2;Temp;Humidity;BMP_temperature;BMP_pressure;BME280_temperature;BME280_humidity;BME280_pressure;Samples;Min_cycle;Max_cycle;Signal;HPM_P1;HPM_P2
2021/11/11 00:02:08;;;;;;;28.80;16.50;;;-1.30;99.90;;;;;;5058121;28;20044;-91
2021/11/11 00:04:35;;;;;;;29.88;16.00;;;-1.30;99.90;;;;;;5058060;28;20079;-91
2021/11/11 00:07:04;;;;;;;25.02;15.68;;;-1.40;99.90;;;;;;5058182;28;20161;-91
2021/11/11 00:09:31;;;;;;;37.72;18.45;;;-1.30;99.90;;;;;;5057951;28;20083;-91
2021/11/11 00:11:59;;;;;;;24.60;14.80;;;-1.40;99.90;;;;;;5058126;28;20541;-91
2021/11/11 00:14:26;;;;;;;31.15;15.68;;;-1.40;99.90;;;;;;5057573;28;20049;-91
2021/11/11 00:16:53;;;;;;;26.98;16.42;;;-1.50;99.90;;;;;;5057970;28;20052;-92
2021/11/11 00:19:20;;;;;;;28.10;15.57;;;-1.50;99.90;;;;;;5058011;28;20052;-91
2021/11/11 00:21:47;;;;;;;22.55;13.88;;;-1.50;99.90;;;;;;5057437;28;20148;-91
2021/11/11 00:24:15;;;;;;;25.85;15.35;;;-1.40;99.90;;;;;;5057959;28;20127;-91
2021/11/11 00:26:43;;;;;;;26.00;15.30;;;-1.40;99.90;;;;;;5057361;28;20135;-92
2021/11/11 00:29:10;;;;;;;28.88;15.18;;;-1.40;99.90;;;;;;5057648;28;20148;-91
2021/11/11 00:31:37;;;;;;;25.48;16.00;;;-1.40;99.90;;;;;;5057246;28;20492;-91
2021/11/11 00:34:04;;;;;;;26.58;15.95;;;-1.30;99.90;;;;;;5057474;28;20048;-91
2021/11/11 00:36:31;;;;;;;26.90;15.52;;;-1.40;99.90;;;;;;5057317;28;20055;-91
2021/11/11 00:38:58;;;;;;;32.80;16.75;;;-1.40;99.90;;;;;;5056796;28;20083;-91
2021/11/11 00:41:26;;;;;;;32.75;15.85;;;-1.40;99.90;;;;;;5057528;28;20508;-92
2021/11/11 00:43:52;;;;;;;25.65;14.85;;;-1.40;99.90;;;;;;5057352;28;20127;-91
2021/11/11 00:46:19;;;;;;;24.90;14.63;;;-1.50;99.90;;;;;;5056929;28;20059;-91
2021/11/11 00:48:46;;;;;;;24.45;14.50;;;-1.40;99.90;;;;;;5057361;28;20497;-91
2021/11/11 00:51:13;;;;;;;25.27;15.05;;;-1.40;99.90;;;;;;5057161;28;20059;-91
2021/11/11 00:53:39;;;;;;;21.45;13.23;;;-1.50;99.90;;;;;;5056927;28;20131;-91
2021/11/11 00:56:06;;;;;;;28.80;14.68;;;-1.40;99.90;;;;;;5056734;28;20135;-91
2021/11/11 00:58:33;;;;;;;26.67;15.68;;;-1.40;99.90;;;;;;5057052;28;20103;-92
2021/11/11 01:01:01;;;;;;;28.65;14.27;;;-1.60;99.90;;;;;;5057143;28;20163;-92
2021/11/11 01:03:40;;;;;;;24.58;13.68;;;-1.60;99.90;;;;;;5059162;28;20045;-92
2021/11/11 01:06:11;;;;;;;26.50;14.80;;;-1.50;99.90;;;;;;5056867;28;20045;-92
2021/11/11 01:08:37;;;;;;;24.83;14.85;;;-1.50;99.90;;;;;;5056606;28;20135;-92
2021/11/11 01:11:05;;;;;;;23.90;14.80;;;-1.50;99.90;;;;;;5056737;28;20048;-92
2021/11/11 01:13:33;;;;;;;27.75;15.60;;;-1.40;99.90;;;;;;5056599;28;20460;-92
2021/11/11 01:45:49;;;;;;;31.20;14.82;;;-1.80;99.90;;;;;;5054647;28;20072;-91
2021/11/11 01:48:17;;;;;;;28.52;14.82;;;-1.70;99.90;;;;;;5052393;28;20053;-92
2021/11/11 01:50:46;;;;;;;29.67;15.02;;;-1.60;99.90;;;;;;5051967;28;20053;-91
2021/11/11 01:53:14;;;;;;;24.77;15.32;;;-1.50;99.90;;;;;;5052926;28;20049;-92
2021/11/11 01:55:44;;;;;;;27.33;14.65;;;-1.40;99.90;;;;;;5052379;28;20055;-91
2021/11/11 01:58:11;;;;;;;31.65;15.77;;;-1.40;99.90;;;;;;5052726;28;20056;-91
2021/11/11 02:00:45;;;;;;;31.02;16.63;;;-1.50;99.90;;;;;;5052578;28;20057;-91
2021/11/11 02:03:14;;;;;;;24.83;14.95;;;-1.50;99.90;;;;;;5052784;28;20045;-92
2021/11/11 02:05:43;;;;;;;26.65;15.30;;;-1.50;99.90;;;;;;5052557;28;20049;-91
2021/11/11 02:08:10;;;;;;;27.35;14.88;;;-1.40;99.90;;;;;;5052648;28;20083;-91
2021/11/11 02:10:39;;;;;;;25.48;15.23;;;-1.40;99.90;;;;;;5052303;28;20072;-92
2021/11/11 02:13:07;;;;;;;25.25;14.65;;;-1.40;99.90;;;;;;5052515;28;20069;-92
2021/11/11 02:15:36;;;;;;;24.08;14.38;;;-1.40;99.90;;;;;;5052476;28;20490;-91
2021/11/11 02:18:07;;;;;;;29.15;15.57;;;-1.50;99.90;;;;;;5052759;28;20053;-92
2021/11/11 02:20:37;;;;;;;25.52;14.00;;;-1.50;99.90;;;;;;5052478;28;20561;-91
2021/11/11 02:23:06;;;;;;;25.10;14.68;;;-1.60;99.90;;;;;;5052444;28;20520;-92
2021/11/11 02:25:33;;;;;;;23.45;14.43;;;-1.60;99.90;;;;;;5052480;28;20073;-91
2021/11/11 02:28:03;;;;;;;30.70;15.88;;;-1.60;99.90;;;;;;5052507;28;20152;-92
2021/11/11 02:30:32;;;;;;;27.98;14.98;;;-1.60;99.90;;;;;;5052303;28;20485;-92
2021/11/11 02:33:00;;;;;;;29.60;15.18;;;-1.60;99.90;;;;;;5052212;28;20136;-92
2021/11/11 02:35:27;;;;;;;23.65;14.45;;;-1.50;99.90;;;;;;5052153;28;20048;-92
2021/11/11 02:37:54;;;;;;;35.67;18.52;;;-1.50;99.90;;;;;;5052050;28;20128;-92
2021/11/11 02:40:26;;;;;;;28.52;17.90;;;-1.30;99.90;;;;;;5051875;28;20144;-92
2021/11/11 02:42:54;;;;;;;29.52;18.50;;;-1.30;99.90;;;;;;5051779;28;20064;-92
2021/11/11 02:45:27;;;;;;;31.10;18.33;;;-1.30;99.90;;;;;;5051928;28;20045;-91
2021/11/11 02:47:54;;;;;;;;;;;-1.30;99.90;;;;;;5052230;28;20064;-92
2021/11/11 02:50:23;;;;;;;28.08;15.55;;;-1.30;99.90;;;;;;5052058;28;19925;-92
2021/11/11 02:52:52;;;;;;;24.13;14.05;;;-1.40;99.90;;;;;;5052115;28;20143;-91
2021/11/11 02:55:19;;;;;;;32.63;16.52;;;-1.50;99.90;;;;;;5051834;28;20045;-92
2021/11/11 02:57:48;;;;;;;28.15;15.75;;;-1.70;99.90;;;;;;5052036;28;20049;-92
2021/11/11 03:00:24;;;;;;;30.83;15.75;;;-1.60;99.90;;;;;;5052219;28;20611;-92
2021/11/11 03:02:53;;;;;;;27.73;15.50;;;-1.50;99.90;;;;;;5054547;28;20048;-92
2021/11/11 03:05:23;;;;;;;25.13;13.80;;;-1.60;99.90;;;;;;5055698;28;20057;-91
2021/11/11 03:07:50;;;;;;;25.30;13.63;;;-1.60;99.90;;;;;;5056018;28;20469;-92
2021/11/11 03:10:21;;;;;;;29.65;15.15;;;-1.60;99.90;;;;;;5056060;28;20073;-92
2021/11/11 03:12:50;;;;;;;24.35;14.05;;;-1.60;99.90;;;;;;5056085;28;20549;-92
2021/11/11 03:15:18;;;;;;;24.80;14.13;;;-1.60;99.90;;;;;;5055866;28;20092;-92
2021/11/11 03:17:47;;;;;;;28.20;15.15;;;-1.60;99.90;;;;;;5055628;28;20135;-92
2021/11/11 03:20:15;;;;;;;24.17;14.73;;;-1.60;99.90;;;;;;5055489;28;20132;-92
2021/11/11 03:22:43;;;;;;;27.95;15.52;;;-1.50;99.90;;;;;;5055646;28;20076;-92
2021/11/11 03:25:16;;;;;;;26.17;14.45;;;-1.60;99.90;;;;;;5055636;28;20059;-92
2021/11/11 03:27:45;;;;;;;;;;;-1.70;99.90;;;;;;5055968;28;20152;-92
2021/11/11 03:30:14;;;;;;;25.10;13.43;;;-1.80;99.90;;;;;;5055325;28;20321;-93
2021/11/11 03:32:42;;;;;;;28.98;14.20;;;-1.80;99.90;;;;;;5055475;28;20136;-93
2021/11/11 03:35:10;;;;;;;22.80;13.35;;;-1.70;99.90;;;;;;5055475;28;20133;-92
2021/11/11 03:37:38;;;;;;;24.70;13.73;;;-1.70;99.90;;;;;;5055296;28;20053;-92
2021/11/11 03:40:09;;;;;;;29.38;15.93;;;-1.60;99.90;;;;;;5055532;28;20045;-93
2021/11/11 03:42:36;;;;;;;26.55;15.70;;;-1.60;99.90;;;;;;5055080;28;20480;-92
2021/11/11 03:45:05;;;;;;;29.17;15.27;;;-1.50;99.90;;;;;;5055102;28;20132;-93
2021/11/11 03:47:32;;;;;;;24.95;15.25;;;-1.50;99.90;;;;;;5054815;28;20413;-93
2021/11/11 03:49:58;;;;;;;30.20;15.60;;;-1.60;99.90;;;;;;5055334;28;20432;-92
2021/11/11 03:52:25;;;;;;;26.25;14.85;;;-1.50;99.90;;;;;;5054820;28;20132;-92
2021/11/11 03:54:53;;;;;;;28.05;15.43;;;-1.50;99.90;;;;;;5054985;28;20061;-92
2021/11/11 03:57:19;;;;;;;28.05;14.57;;;-1.50;99.90;;;;;;5054989;28;20052;-92
2021/11/11 03:59:46;;;;;;;24.40;14.27;;;-1.50;99.90;;;;;;5054892;28;20045;-91
2021/11/11 04:02:13;;;;;;;23.05;14.07;;;-1.50;99.90;;;;;;5055054;28;20041;-93
2021/11/11 04:04:42;;;;;;;23.55;13.60;;;-1.50;99.90;;;;;;5054873;28;20053;-93
2021/11/11 04:07:09;;;;;;;30.70;14.52;;;-1.50;99.90;;;;;;5054865;28;20135;-92
2021/11/11 04:09:36;;;;;;;31.80;13.93;;;-1.60;99.90;;;;;;5054890;28;20102;-93
2021/11/11 04:12:03;;;;;;;25.02;13.80;;;-1.60;99.90;;;;;;5054720;28;20106;-93
2021/11/11 04:14:32;;;;;;;29.30;15.15;;;-1.70;99.90;;;;;;5053525;28;20049;-93
2021/11/11 04:16:59;;;;;;;25.30;14.77;;;-1.70;99.90;;;;;;5054534;28;20132;-93
2021/11/11 04:19:26;;;;;;;30.25;15.65;;;-1.70;99.90;;;;;;5054526;28;20060;-92
2021/11/11 04:21:53;;;;;;;25.02;14.20;;;-1.80;99.90;;;;;;5054647;28;20044;-93
2021/11/11 04:24:20;;;;;;;29.42;15.57;;;-1.90;99.90;;;;;;5054778;28;20535;-93
2021/11/11 04:26:55;;;;;;;27.90;14.15;;;-1.80;99.90;;;;;;5054669;28;20145;-93
2021/11/11 04:29:30;;;;;;;32.38;15.60;;;-1.80;99.90;;;;;;5054664;28;20069;-93
2021/11/11 04:31:59;;;;;;;30.90;16.35;;;-1.80;99.90;;;;;;5054884;28;20065;-93
2021/11/11 04:34:27;;;;;;;29.67;15.80;;;-1.80;99.90;;;;;;5054524;28;20113;-92
2021/11/11 04:37:23;;;;;;;31.25;15.27;;;-1.90;99.90;;;;;;5054388;28;20514;-94
2021/11/11 04:42:33;;;;;;;26.10;15.05;;;-1.90;99.90;;;;;;5055463;28;20080;-92
2021/11/11 05:01:39;;;;;;;35.63;17.38;;;-1.90;99.90;;;;;;5074518;28;20135;-93
2021/11/11 05:04:06;;;;;;;34.45;17.23;;;-2.00;99.90;;;;;;5055886;28;20053;-93
2021/11/11 05:06:33;;;;;;;28.27;14.88;;;-2.00;99.90;;;;;;5055821;28;20136;-93
2021/11/11 05:08:59;;;;;;;32.45;15.10;;;-2.00;99.90;;;;;;5055959;28;20053;-92
2021/11/11 05:11:26;;;;;;;27.30;15.07;;;-1.90;99.90;;;;;;5055927;28;20135;-93
2021/11/11 05:13:53;;;;;;;26.63;14.07;;;-1.80;99.90;;;;;;5055163;28;20049;-93
2021/11/11 05:16:20;;;;;;;31.30;14.77;;;-1.80;99.90;;;;;;5056626;28;20053;-93
2021/11/11 05:18:47;;;;;;;30.63;16.42;;;-1.80;99.90;;;;;;5074167;28;20048;-93
2021/11/11 05:21:13;;;;;;;37.80;18.67;;;-1.90;99.90;;;;;;5057113;28;20080;-93
2021/11/11 05:23:41;;;;;;;32.25;17.50;;;-1.90;99.90;;;;;;5057168;28;20132;-93
2021/11/11 05:26:08;;;;;;;43.30;18.70;;;-1.90;99.90;;;;;;5056318;28;20076;-92
2021/11/11 05:28:36;;;;;;;40.22;18.13;;;-2.00;99.90;;;;;;5057162;28;20087;-93
2021/11/11 05:31:03;;;;;;;32.17;15.68;;;-2.10;99.90;;;;;;5056819;28;20054;-94
2021/11/11 05:33:31;;;;;;;37.83;17.30;;;-2.00;99.90;;;;;;5056467;28;20135;-93
2021/11/11 05:35:57;;;;;;;28.67;14.77;;;-2.10;99.90;;;;;;5056936;28;20134;-93
2021/11/11 05:38:24;;;;;;;33.72;16.10;;;-2.00;99.90;;;;;;5057015;28;20491;-93
2021/11/11 05:40:51;;;;;;;40.03;16.75;;;-2.00;99.90;;;;;;5057448;28;20120;-93
2021/11/11 05:43:21;;;;;;;29.63;15.48;;;-2.10;99.90;;;;;;5074666;28;20412;-93
2021/11/11 05:45:47;;;;;;;27.25;14.75;;;-2.10;99.90;;;;;;5057639;28;20052;-93
2021/11/11 05:48:14;;;;;;;26.85;14.93;;;-2.10;99.90;;;;;;5057917;28;20056;-93
2021/11/11 05:50:41;;;;;;;29.35;14.93;;;-2.10;99.90;;;;;;5058634;28;20079;-93
2021/11/11 05:53:08;;;;;;;31.40;14.88;;;-2.10;99.90;;;;;;5059020;28;20490;-94
2021/11/11 05:55:35;;;;;;;35.00;15.73;;;-2.10;99.90;;;;;;5058988;28;20044;-93
2021/11/11 05:58:02;;;;;;;35.92;15.70;;;-2.00;99.90;;;;;;5059396;28;20123;-93
2021/11/11 06:00:30;;;;;;;28.85;15.02;;;-2.20;99.90;;;;;;5058186;28;20136;-93
2021/11/11 06:02:56;;;;;;;35.28;15.75;;;-2.30;99.90;;;;;;5059677;28;20059;-94
2021/11/11 06:05:26;;;;;;;34.03;14.93;;;-2.20;99.90;;;;;;5062040;28;20071;-94
2021/11/11 06:07:53;;;;;;;31.45;15.43;;;-2.20;99.90;;;;;;5061251;28;20044;-94
2021/11/11 06:10:20;;;;;;;36.00;15.38;;;-2.20;99.90;;;;;;5079226;28;20134;-93
2021/11/11 06:12:47;;;;;;;28.67;14.75;;;-2.10;99.90;;;;;;5062957;28;20071;-94
2021/11/11 06:15:14;;;;;;;31.02;15.80;;;-2.10;99.90;;;;;;5081503;28;20070;-94
2021/11/11 06:17:43;;;;;;;42.47;19.98;;;-2.10;99.90;;;;;;5064782;28;20079;-94
2021/11/11 06:20:18;;;;;;;33.63;18.23;;;-2.20;99.90;;;;;;5068523;28;20041;-93
2021/11/11 06:22:47;;;;;;;34.40;16.35;;;-2.20;99.90;;;;;;5069436;28;20110;-94
2021/11/11 06:25:15;;;;;;;32.90;17.25;;;-2.20;99.90;;;;;;5069000;28;20052;-94
2021/11/11 06:27:42;;;;;;;45.20;23.48;;;-2.20;99.90;;;;;;5050207;28;20052;-94
2021/11/11 06:30:10;;;;;;;48.72;20.95;;;-2.00;99.90;;;;;;5069605;28;20071;-94
2021/11/11 06:32:39;;;;;;;45.10;20.25;;;-2.00;99.90;;;;;;5086162;28;20096;-92
2021/11/11 06:35:31;;;;;;;42.38;18.73;;;-2.10;99.90;;;;;;5078863;28;20055;-93
2021/11/11 06:38:01;;;;;;;43.10;17.02;;;-2.10;99.90;;;;;;5080981;28;20052;-93
2021/11/11 06:40:33;;;;;;;30.15;15.27;;;-2.00;99.90;;;;;;5061845;28;20049;-94
2021/11/11 06:43:02;;;;;;;34.58;17.45;;;-2.00;99.90;;;;;;5058059;28;20044;-93
2021/11/11 06:45:38;;;;;;;36.20;17.60;;;-2.10;99.90;;;;;;5093775;28;20048;-94
2021/11/11 06:48:12;;;;;;;32.33;16.23;;;-2.20;99.90;;;;;;5075411;28;20060;-93
2021/11/11 06:50:43;;;;;;;34.28;16.38;;;-2.20;99.90;;;;;;5074364;28;20052;-94
2021/11/11 06:53:12;;;;;;;31.48;15.13;;;-2.20;99.90;;;;;;5071500;28;20489;-94
2021/11/11 06:55:41;;;;;;;33.08;16.05;;;-2.10;99.90;;;;;;5072588;28;20117;-94
2021/11/11 06:58:10;;;;;;;29.13;15.57;;;-2.00;99.90;;;;;;5069900;28;20056;-94
2021/11/11 07:00:38;;;;;;;39.88;17.35;;;-1.90;99.90;;;;;;5068882;28;20056;-93
2021/11/11 07:03:06;;;;;;;35.30;16.00;;;-1.90;99.90;;;;;;5066539;28;20063;-94
2021/11/11 07:05:33;;;;;;;59.25;21.33;;;-1.80;99.90;;;;;;5065399;28;20450;-94
2021/11/11 07:08:00;;;;;;;42.03;20.63;;;-1.70;99.90;;;;;;5062910;28;20075;-94
2021/11/11 07:10:27;;;;;;;51.88;21.05;;;-1.60;99.90;;;;;;5061467;28;20082;-94
2021/11/11 07:12:53;;;;;;;51.50;21.55;;;-1.60;99.90;;;;;;5060493;28;20082;-93
2021/11/11 07:15:20;;;;;;;40.55;19.45;;;-1.60;99.90;;;;;;5059942;28;20492;-93
2021/11/11 07:17:47;;;;;;;41.67;19.02;;;-1.50;99.90;;;;;;5059591;28;20053;-93
2021/11/11 07:20:16;;;;;;;38.55;18.27;;;-1.40;99.90;;;;;;5059749;28;20068;-93
2021/11/11 07:22:45;;;;;;;49.88;27.20;;;-1.40;99.90;;;;;;5059240;28;20048;-92
2021/11/11 07:25:14;;;;;;;44.33;21.75;;;-1.30;99.90;;;;;;5059380;28;20131;-93
2021/11/11 07:27:41;;;;;;;37.80;20.85;;;-1.30;99.90;;;;;;5059290;28;20131;-93
2021/11/11 07:30:14;;;;;;;48.58;24.85;;;-1.20;99.90;;;;;;5059216;28;20449;-93
2021/11/11 07:32:42;;;;;;;58.05;22.15;;;-1.20;99.90;;;;;;5059379;28;20075;-92
2021/11/11 07:35:10;;;;;;;35.92;20.65;;;-1.20;99.90;;;;;;5059254;28;20158;-93
2021/11/11 07:37:41;;;;;;;46.75;21.92;;;-1.10;99.90;;;;;;5058924;28;20054;-93
2021/11/11 07:40:10;;;;;;;52.15;23.45;;;-1.10;99.90;;;;;;5059002;28;20040;-92
2021/11/11 07:42:37;;;;;;;40.38;21.08;;;-1.20;99.90;;;;;;5058712;28;20132;-91
2021/11/11 07:45:06;;;;;;;44.42;23.63;;;-1.10;99.90;;;;;;5058876;28;20076;-93
2021/11/11 07:47:34;;;;;;;45.83;23.35;;;-1.00;99.90;;;;;;5058541;28;20501;-93
2021/11/11 07:50:03;;;;;;;49.10;25.00;;;-1.00;99.90;;;;;;5058928;28;20140;-92
2021/11/11 07:52:30;;;;;;;53.97;24.38;;;-0.90;99.90;;;;;;5058750;28;20068;-93
2021/11/11 07:54:58;;;;;;;41.97;23.70;;;-0.80;99.90;;;;;;5058624;28;20598;-93
2021/11/11 07:57:31;;;;;;;52.40;25.08;;;-0.80;99.90;;;;;;5058977;28;20049;-93
2021/11/11 07:59:59;;;;;;;40.88;22.70;;;-0.80;99.90;;;;;;5058765;28;20075;-93
2021/11/11 08:02:26;;;;;;;43.13;23.02;;;-0.70;99.90;;;;;;5058383;28;20121;-93
2021/11/11 08:04:53;;;;;;;45.30;24.23;;;-0.60;99.90;;;;;;5058378;28;20041;-93
2021/11/11 08:07:20;;;;;;;91.82;42.38;;;-0.70;99.90;;;;;;5058464;28;20528;-92
2021/11/11 08:09:50;;;;;;;112.60;50.50;;;-0.70;99.90;;;;;;5058541;28;20053;-93
2021/11/11 08:12:18;;;;;;;65.25;30.98;;;-0.70;99.90;;;;;;5058299;28;20143;-92
2021/11/11 08:14:45;;;;;;;48.20;25.08;;;-0.70;99.90;;;;;;5058200;28;20068;-92
2021/11/11 08:17:15;;;;;;;52.90;27.45;;;-0.60;99.90;;;;;;5058172;28;20545;-93
2021/11/11 08:19:43;;;;;;;39.15;21.42;;;-0.50;99.90;;;;;;5058345;28;20051;-92
2021/11/11 08:22:10;;;;;;;70.22;26.90;;;-0.40;99.90;;;;;;5058300;28;20135;-93
2021/11/11 08:24:43;;;;;;;58.08;27.30;;;-0.30;99.90;;;;;;5058477;28;20075;-92
2021/11/11 08:27:12;;;;;;;61.58;30.85;;;-0.30;99.90;;;;;;5058327;28;20131;-90
2021/11/11 08:29:42;;;;;;;58.25;26.50;;;-0.20;99.90;;;;;;5058432;28;20044;-92
2021/11/11 08:32:11;;;;;;;45.50;24.13;;;-0.20;99.90;;;;;;5058467;28;20532;-92
2021/11/11 08:34:39;;;;;;;87.72;28.27;;;-0.10;99.90;;;;;;5058399;28;20479;-92
2021/11/11 08:37:09;;;;;;;61.75;28.27;;;-0.20;99.90;;;;;;5058321;28;20071;-92
2021/11/11 08:39:37;;;;;;;53.03;23.90;;;-0.10;99.90;;;;;;5058451;28;20127;-92
2021/11/11 08:42:06;;;;;;;57.65;25.52;;;0.00;99.90;;;;;;5058282;28;20459;-92
2021/11/11 08:44:34;;;;;;;51.42;23.25;;;0.10;99.90;;;;;;5058174;28;20048;-92
2021/11/11 08:47:03;;;;;;;49.15;23.45;;;0.20;99.90;;;;;;5057837;28;20434;-91
2021/11/11 08:49:29;;;;;;;52.90;23.67;;;0.40;99.90;;;;;;5057945;28;20135;-91
2021/11/11 08:51:56;;;;;;;47.15;22.80;;;0.50;99.90;;;;;;5057776;28;20056;-91
2021/11/11 08:54:23;;;;;;;53.22;25.45;;;0.70;99.90;;;;;;5057645;28;20051;-90
2021/11/11 08:56:51;;;;;;;60.58;31.38;;;1.00;99.90;;;;;;5057579;28;20053;-90
2021/11/11 08:59:20;;;;;;;65.13;30.35;;;1.30;99.90;;;;;;5057261;28;20102;-90
2021/11/11 09:01:48;;;;;;;77.97;38.40;;;1.70;99.90;;;;;;5057589;28;20072;-90
2021/11/11 09:04:16;;;;;;;96.78;46.20;;;2.00;99.90;;;;;;5057683;28;20500;-90
2021/11/11 09:06:43;;;;;;;99.32;45.03;;;2.20;99.90;;;;;;5057532;28;20054;-90
2021/11/11 09:09:14;;;;;;;124.50;50.28;;;2.40;99.90;;;;;;5057547;28;20052;-89
2021/11/11 09:11:41;;;;;;;87.05;43.25;;;2.50;99.90;;;;;;5057276;28;20136;-90
2021/11/11 09:14:08;;;;;;;108.60;48.88;;;2.60;99.90;;;;;;5057433;28;20055;-90
2021/11/11 09:16:35;;;;;;;135.05;59.63;;;3.20;99.90;;;;;;5056893;28;20111;-89
2021/11/11 09:19:06;;;;;;;305.02;78.30;;;4.40;99.90;;;;;;5057331;28;20072;-90
2021/11/11 09:21:33;;;;;;;1474.57;387.15;;;5.90;99.90;;;;;;5057275;28;20066;-90
2021/11/11 09:24:00;;;;;;;1999.90;484.70;;;7.70;99.90;;;;;;5057241;28;20058;-90
2021/11/11 09:26:27;;;;;;;76.78;34.03;;;9.10;99.90;;;;;;5057148;28;20048;-90
2021/11/11 09:28:54;;;;;;;32.88;19.73;;;9.60;99.90;;;;;;5057144;28;20135;-90
2021/11/11 09:31:23;;;;;;;35.25;15.95;;;11.00;99.90;;;;;;5057114;28;20127;-90
2021/11/11 09:33:51;;;;;;;21.23;12.13;;;12.30;99.90;;;;;;5057185;28;20045;-90
2021/11/11 09:36:19;;;;;;;19.83;10.65;;;13.20;99.90;;;;;;5051949;28;20140;-90
2021/11/11 09:38:47;;;;;;;21.83;8.98;;;13.90;99.90;;;;;;5052622;28;20496;-90
2021/11/11 09:41:16;;;;;;;37.40;10.23;;;13.70;99.90;;;;;;5053471;28;20131;-90
2021/11/11 09:43:43;;;;;;;26.00;9.95;;;14.50;99.90;;;;;;5053549;28;20485;-90
2021/11/11 09:46:14;;;;;;;22.30;7.93;;;14.80;99.90;;;;;;5053161;28;20493;-89
2021/11/11 09:48:42;;;;;;;14.95;7.40;;;16.10;99.90;;;;;;5053450;28;20444;-89
2021/11/11 09:51:13;;;;;;;23.45;8.73;;;16.60;99.90;;;;;;5053424;28;20049;-90
2021/11/11 09:53:50;;;;;;;22.55;7.70;;;16.90;99.90;;;;;;5053149;28;20057;-89
2021/11/11 09:59:17;;;;;;;9.57;6.60;;;18.20;89.80;;;;;;5054067;28;20051;-89
2021/11/11 10:01:46;;;;;;;10.35;7.30;;;17.60;90.50;;;;;;5053057;28;20132;-90
2021/11/11 10:04:13;;;;;;;33.33;8.88;;;18.10;87.10;;;;;;5053948;28;20508;-89
2021/11/11 10:06:40;;;;;;;73.72;32.30;;;17.90;83.80;;;;;;5052715;28;20136;-90
2021/11/11 10:09:21;;;;;;;108.10;45.30;;;16.60;87.70;;;;;;5053008;28;20053;-90
2021/11/11 10:11:50;;;;;;;197.32;96.38;;;17.40;87.30;;;;;;5052061;28;20049;-90
2021/11/11 10:14:23;;;;;;;361.77;199.55;;;17.10;86.50;;;;;;5052941;28;20481;-87
2021/11/11 10:16:57;;;;;;;39.13;19.65;;;16.70;88.00;;;;;;5052497;28;20048;-87
2021/11/11 10:19:25;;;;;;;18.13;10.23;;;17.30;87.10;;;;;;5052791;28;20059;-87
2021/11/11 10:22:00;;;;;;;30.17;11.40;;;17.30;89.70;;;;;;5053998;28;20104;-87
2021/11/11 10:24:36;;;;;;;21.30;12.52;;;18.10;84.60;;;;;;5053611;28;20055;-89
2021/11/11 10:27:24;;;;;;;50.08;31.30;;;16.80;84.90;;;;;;5053901;28;20061;-89
2021/11/11 10:30:03;;;;;;;63.42;44.60;;;14.80;91.40;;;;;;5053761;28;20076;-89
2021/11/11 10:32:42;;;;;;;18.63;10.07;;;13.40;95.90;;;;;;5053506;28;20494;-89
2021/11/11 10:35:28;;;;;;;55.65;39.83;;;12.10;99.90;;;;;;5051487;28;20049;-88
2021/11/11 10:38:08;;;;;;;36.10;23.52;;;11.50;99.90;;;;;;5052118;28;20386;-89
2021/11/11 10:40:47;;;;;;;115.38;80.30;;;11.90;99.90;;;;;;5052189;28;20132;-89
2021/11/11 10:43:18;;;;;;;10.32;6.85;;;13.90;99.90;;;;;;5052165;28;20053;-90
2021/11/11 10:45:47;;;;;;;13.00;9.85;;;14.90;99.90;;;;;;5051520;28;20067;-89
2021/11/11 10:48:17;;;;;;;7.70;6.20;;;15.70;99.50;;;;;;5051573;28;20114;-87
2021/11/11 10:50:49;;;;;;;17.00;10.80;;;16.80;95.30;;;;;;5051672;28;20056;-87
2021/11/11 10:53:27;;;;;;;8.95;5.05;;;17.60;91.50;;;;;;5052931;28;20162;-87
2021/11/11 10:55:58;;;;;;;10.93;7.30;;;18.10;91.10;;;;;;5047701;28;20067;-86
2021/11/11 10:58:29;;;;;;;19.40;9.48;;;19.00;86.70;;;;;;5052621;28;20486;-87
2021/11/11 11:00:58;;;;;;;8.15;6.97;;;18.40;86.90;;;;;;5051823;28;20049;-87
2021/11/11 11:03:27;;;;;;;7.65;5.10;;;17.70;86.40;;;;;;5051785;28;20057;-88
2021/11/11 11:06:00;;;;;;;15.85;9.57;;;17.50;91.40;;;;;;5052053;28;20099;-87
2021/11/11 11:08:31;;;;;;;8.75;5.40;;;17.30;89.00;;;;;;5053020;28;20470;-87
2021/11/11 11:11:07;;;;;;;7.18;6.28;;;17.90;90.50;;;;;;5052229;28;20132;-87
2021/11/11 11:13:37;;;;;;;22.17;7.25;;;18.70;84.50;;;;;;5053037;28;20478;-88
2021/11/11 11:16:18;;;;;;;13.88;6.13;;;18.10;87.50;;;;;;5052109;28;20136;-86
2021/11/11 11:18:55;;;;;;;10.68;6.32;;;18.90;84.30;;;;;;5052048;28;20075;-88
2021/11/11 11:21:33;;;;;;;6.93;6.07;;;19.30;81.70;;;;;;5053121;28;20386;-87
2021/11/11 11:24:04;;;;;;;8.60;6.47;;;19.80;78.40;;;;;;5055882;28;20055;-87
2021/11/11 11:26:35;;;;;;;26.63;7.35;;;18.30;80.10;;;;;;5055511;28;20057;-87
2021/11/11 11:29:18;;;;;;;14.07;6.13;;;17.30;86.10;;;;;;5056130;28;20048;-87
2021/11/11 11:32:04;;;;;;;10.88;5.68;;;18.20;84.70;;;;;;5055519;28;20436;-87
2021/11/11 11:34:34;;;;;;;171.88;16.50;;;18.20;84.70;;;;;;5056070;28;20060;-88
2021/11/11 11:37:05;;;;;;;198.13;18.00;;;18.50;84.00;;;;;;5055453;28;20052;-88
2021/11/11 11:39:48;;;;;;;8.80;5.95;;;18.20;82.10;;;;;;5055317;28;20076;-87
2021/11/11 11:42:18;;;;;;;8.50;6.13;;;17.80;82.70;;;;;;5054346;28;20049;-88
2021/11/11 11:44:51;;;;;;;11.38;6.95;;;17.80;83.60;;;;;;5056005;28;20169;-88
2021/11/11 11:47:41;;;;;;;6.40;5.50;;;18.60;82.50;;;;;;5055022;28;20061;-88
2021/11/11 11:50:19;;;;;;;7.30;5.28;;;20.00;78.50;;;;;;5055093;28;20056;-88
2021/11/11 11:52:50;;;;;;;7.20;6.50;;;19.40;78.60;;;;;;5054812;28;20045;-88
2021/11/11 11:55:24;;;;;;;9.35;6.40;;;20.00;75.00;;;;;;5054855;28;20132;-87
2021/11/11 11:58:16;;;;;;;7.32;5.57;;;20.10;74.50;;;;;;5055593;28;20049;-88
2021/11/11 12:01:15;;;;;;;18.48;7.05;;;19.10;79.50;;;;;;5055790;28;20075;-88
2021/11/11 12:17:47;;;;;;;9.52;4.85;;;20.20;74.10;;;;;;5050477;28;20536;-87
2021/11/11 12:29:28;;;;;;;7.25;5.10;;;17.20;78.80;;;;;;5055565;28;20068;-87
2021/11/11 12:38:33;;;;;;;6.43;5.43;;;16.40;85.00;;;;;;5054083;28;20557;-89
2021/11/11 12:40:35;;;;;;;8.02;5.03;;;15.50;89.60;;;;;;5054854;28;20056;-89
2021/11/11 12:43:15;;;;;;;14.13;5.03;;;14.70;91.40;;;;;;5054127;28;20200;-87
2021/11/11 12:45:42;;;;;;;7.38;5.53;;;15.00;92.20;;;;;;5054942;28;20084;-87
2021/11/11 12:48:09;;;;;;;9.20;5.28;;;15.40;92.90;;;;;;5053764;28;20087;-87
2021/11/11 12:50:38;;;;;;;7.20;4.70;;;15.80;91.50;;;;;;5053795;28;20588;-89
2021/11/11 12:53:13;;;;;;;7.43;5.05;;;15.00;92.90;;;;;;5054819;28;20048;-90
2021/11/11 12:55:55;;;;;;;8.43;6.03;;;15.30;92.10;;;;;;5053446;28;20056;-89
2021/11/11 12:58:32;;;;;;;8.32;5.60;;;15.30;91.90;;;;;;5054589;28;20577;-86
2021/11/11 13:01:05;;;;;;;7.20;5.80;;;14.70;92.70;;;;;;5054890;28;20051;-89
2021/11/11 13:03:50;;;;;;;7.53;5.38;;;14.20;93.70;;;;;;5053753;28;20049;-89
2021/11/11 13:06:36;;;;;;;8.27;5.75;;;14.10;94.60;;;;;;5053498;28;20410;-89
2021/11/11 13:09:18;;;;;;;10.85;5.82;;;13.80;96.30;;;;;;5053794;28;20052;-89
2021/11/11 13:11:47;;;;;;;14.23;8.95;;;13.90;96.90;;;;;;5053570;28;20056;-89
2021/11/11 13:14:18;;;;;;;9.13;6.38;;;13.50;97.50;;;;;;5053385;28;20049;-89
2021/11/11 13:17:12;;;;;;;13.10;6.45;;;13.50;98.30;;;;;;5054387;28;20055;-87
2021/11/11 13:19:46;;;;;;;9.88;5.68;;;13.10;99.90;;;;;;5044415;28;20049;-90
2021/11/11 13:22:24;;;;;;;9.27;5.35;;;13.70;99.90;;;;;;5054180;28;20056;-87
2021/11/11 13:25:15;;;;;;;11.38;5.70;;;14.20;98.70;;;;;;5054315;28;20049;-87
2021/11/11 13:28:05;;;;;;;51.08;27.58;;;14.30;98.60;;;;;;5054291;28;20402;-89
2021/11/11 13:59:42;;;;;;;39.63;12.38;;;15.20;95.30;;;;;;5053708;28;20351;-87
2021/11/11 15:57:03;;;;;;;20.20;11.55;;;5.00;99.90;;;;;;5075888;28;20067;-89
2021/11/11 15:57:08;;;;;;;21.35;9.85;;;4.90;99.90;;;;;;5075689;28;20055;-87
2021/11/11 15:57:10;;;;;;;16.70;10.07;;;4.70;99.90;;;;;;5075663;28;20051;-88
2021/11/11 16:20:43;;;;;;;27.05;16.55;;;3.80;99.90;;;;;;5075272;28;20044;-88
2021/11/11 16:23:47;;;;;;;33.05;14.75;;;3.70;99.90;;;;;;5075461;28;20059;-88
2021/11/11 16:26:12;;;;;;;24.17;13.13;;;3.60;99.90;;;;;;5074487;28;20048;-87
2021/11/11 16:28:39;;;;;;;26.50;13.23;;;3.60;99.90;;;;;;5057455;28;20513;-87
2021/11/11 16:31:06;;;;;;;32.95;17.17;;;3.50;99.90;;;;;;5057612;28;20059;-87
2021/11/11 16:33:33;;;;;;;29.00;16.35;;;3.40;99.90;;;;;;5053430;28;20060;-87
2021/11/11 16:36:00;;;;;;;32.30;16.33;;;3.30;99.90;;;;;;5054412;28;20047;-87
2021/11/11 16:38:28;;;;;;;26.13;14.57;;;3.30;99.90;;;;;;5065244;28;20088;-87
2021/11/11 16:40:55;;;;;;;34.47;17.55;;;3.20;99.90;;;;;;5053961;28;20112;-87
2021/11/11 16:43:21;;;;;;;26.83;16.08;;;3.10;99.90;;;;;;5054738;28;20049;-87
2021/11/11 16:45:48;;;;;;;20.73;13.38;;;3.10;99.90;;;;;;5053876;28;20045;-87
2021/11/11 16:48:15;;;;;;;42.28;16.40;;;3.00;99.90;;;;;;5053517;28;20053;-87